Portada
METAR-TAF:

METAR-TAF

Aeroports :

Dole, França

latitud: 47-02-34N, longitud: 005-26-06E, altitud: 196 m

Observació

L'informe es va fer fa 30 minuts, a les 15:00 UTC
Vent 2 kt amb direcció variable
Temperatura 7°C
Humitat 66%
Pressió 1025 hPa
Visibilitat 10 km o més
sense núvols per sota de 1500 mi sense presència de cumulonimbus.

METAR: LFGJ 101500Z AUTO VRB02KT CAVOK 07/01 Q1025 NOSIG

Hora: 16:30 (15:30 UTC)

Pronòstic

L'informe es va fer fa 1 hora i 30 minuts, a les 14:00 UTC
Pronòstic vàlid del 10 a les 15 UTC al 10 a les 24 UTC
Vent 2 kt amb direcció variable
Visibilitat 10 km o més
sense núvols per sota de 1500 mi sense presència de cumulonimbus.
Probabilitat 40% :
Temporalment
l' 10 a les 19 UTC al 10 a les 24 UTC
Visibilitat: 4000 m
boirina

TAF: LFGJ 101400Z 1015/1024 VRB02KT CAVOK PROB40 TEMPO 1019/1024 4000 BR

Observacions i pronòstics meteorològics de més de 4000 aeroports (METAR i TAF).

Les estacions disponibles són els punts grocs i vermells al mapa.

Posi el ratolí al punt desitjat per veure el nom de l'estació.

Feu clic per veure les observacions i els pronòstics meteorològics.

Per canviar el mapa: feu clic els botons verds amb una creu de color negre per apropar; al botó verd amb un guió per allunyar la imatge; o en les fletxes verdes per a mapes adjacents.


METAR-TAF: